Nautilus — ISPC — position and weather

sailwx.info

Track history (hours):
 
Tides and Currents Weather Stations Pressure Air Temp Water Temp Dewpoint Dewpoint Depression Visibility Wind Speed Wind Dir Waves Ship Positions

Nautilus

Last reported at 2015-May-06 14:22 UTC. Time now 2015-May-06 15:30 UTC.
Position N 42°46' E 010°06'.

Length 25 m.

Type: Passenger vessel. MMSI: 247205700.

Date/timePositionNaut miles runAvg speedWind from/ knotsBaromVisibWave heightAir tempDewpointWater temp
2015-May-06 14:22N 42°46' E 010°06'5 5.6
2015-May-06 13:32N 42°48' E 010°12'0 0.0
2015-May-06 12:33N 42°48' E 010°12'1 0.8
2015-May-06 11:32N 42°49' E 010°13'0 0.0
2015-May-06 07:16N 42°49' E 010°13'1 1.2
2015-May-06 06:32N 42°49' E 010°12'0 0.0
2015-May-06 05:33N 42°49' E 010°12'0 0.0
2015-May-06 04:33N 42°49' E 010°12'0 0.0
2015-May-06 03:33N 42°49' E 010°12'0 0.0
2015-May-06 02:20N 42°49' E 010°12'0 0.0
2015-May-06 01:33N 42°49' E 010°12'0 0.0
2015-May-06 00:33N 42°49' E 010°12'0 0.0
2015-May-05 23:33N 42°49' E 010°12'0 0.0
2015-May-05 22:33N 42°49' E 010°12'0 0.0
2015-May-05 21:31N 42°49' E 010°12'0 0.0
2015-May-05 20:32N 42°49' E 010°12'0 0.0
2015-May-05 19:33N 42°49' E 010°12'0 0.0
2015-May-05 18:33N 42°49' E 010°12'0 0.0
2015-May-05 17:33N 42°49' E 010°12'0 0.0
2015-May-05 16:31N 42°49' E 010°12'0 0.0
2015-May-05 15:33N 42°49' E 010°12'0 0.0
2015-May-05 14:33N 42°49' E 010°12'0 0.0
2015-May-05 13:33N 42°49' E 010°12'0 0.0
2015-May-05 12:33N 42°49' E 010°12'0 0.0
2015-May-05 11:30N 42°49' E 010°12'0 0.0
2015-May-05 10:33N 42°49' E 010°12'0 0.0
2015-May-05 09:27N 42°49' E 010°12'0 0.0
2015-May-05 08:33N 42°49' E 010°12'0 0.0
2015-May-05 07:33N 42°49' E 010°12'0 0.0
2015-May-05 06:20N 42°49' E 010°12'0 0.0
2015-May-05 05:33N 42°49' E 010°12'0 0.0
2015-May-05 04:14N 42°49' E 010°12'0 0.0
2015-May-05 03:25N 42°49' E 010°12'0 0.0
2015-May-05 02:33N 42°49' E 010°12'0 0.0
2015-May-05 01:33N 42°49' E 010°12'0 0.0
2015-May-05 00:30N 42°49' E 010°12'0 0.0
2015-May-04 23:33N 42°49' E 010°12'0 0.0
2015-May-04 22:33N 42°49' E 010°12'0 0.0
2015-May-04 21:33N 42°49' E 010°12'0 0.0
2015-May-04 20:33N 42°49' E 010°12'0 0.0
2015-May-04 19:33N 42°49' E 010°12'0 0.0
2015-May-04 18:31N 42°49' E 010°12'0 0.0
2015-May-04 17:32N 42°49' E 010°12'0 0.0
2015-May-04 16:29N 42°49' E 010°12'4 4.0
2015-May-04 15:31N 42°48' E 010°07'4 1.9
2015-May-04 13:28N 42°48' E 010°12'0 0.0
2015-May-04 12:21N 42°48' E 010°12'0 0.2
2015-May-04 11:33N 42°49' E 010°12'0 0.0
2015-May-04 10:33N 42°49' E 010°12'0 0.0
2015-May-04 09:33N 42°49' E 010°12'0 0.0
2015-May-04 08:31N 42°49' E 010°12'0 0.0
2015-May-04 07:21N 42°49' E 010°12'0 0.0
2015-May-04 05:27N 42°49' E 010°12'0 0.0
2015-May-04 04:32N 42°49' E 010°12'0 0.0
2015-May-04 03:27N 42°49' E 010°12'0 0.0
2015-May-04 02:24N 42°49' E 010°12'0 0.0
2015-May-04 01:33N 42°49' E 010°12'0 0.0
2015-May-04 00:33N 42°49' E 010°12'0 0.0
2015-May-03 23:33N 42°49' E 010°12'0 0.0
2015-May-03 22:33N 42°49' E 010°12'0 0.0
2015-May-03 21:33N 42°49' E 010°12'0 0.0
2015-May-03 20:33N 42°49' E 010°12'0 0.0
2015-May-03 19:33N 42°49' E 010°12'0 0.0
2015-May-03 18:33N 42°49' E 010°12'0 0.0
2015-May-03 17:33N 42°49' E 010°12'0 0.0
2015-May-03 16:33N 42°49' E 010°12'2 2.4
2015-May-03 15:33N 42°49' E 010°09'3 1.2
2015-May-03 13:28N 42°48' E 010°12'0 0.0
2015-May-03 12:30N 42°48' E 010°12'0 0.2
2015-May-03 11:33N 42°49' E 010°12'0 0.0
2015-May-03 10:33N 42°49' E 010°12'0 0.0
2015-May-03 09:29N 42°49' E 010°12'0 0.0
2015-May-03 08:31N 42°49' E 010°12'0 0.0
2015-May-03 07:33N 42°49' E 010°12'0 0.0
2015-May-03 06:33N 42°49' E 010°12'0 0.0
2015-May-03 05:32N 42°49' E 010°12'0 0.0
2015-May-03 04:33N 42°49' E 010°12'0 0.0
2015-May-03 03:33N 42°49' E 010°12'0 0.0
2015-May-03 02:32N 42°49' E 010°12'0 0.0
2015-May-03 01:33N 42°49' E 010°12'0 0.0
2015-May-03 00:32N 42°49' E 010°12'0 0.0
2015-May-02 23:32N 42°49' E 010°12'0 0.0
2015-May-02 22:33N 42°49' E 010°12'0 0.0
2015-May-02 21:33N 42°49' E 010°12'0 0.0
2015-May-02 20:33N 42°49' E 010°12'0 0.0
2015-May-02 19:33N 42°49' E 010°12'0 0.0
2015-May-02 18:33N 42°49' E 010°12'0 0.0
2015-May-02 17:33N 42°49' E 010°12'0 0.0
2015-May-02 16:33N 42°49' E 010°12'0 0.0
2015-May-02 12:08N 42°48' E 010°12'0 0.0
2015-May-02 04:11N 42°49' E 010°12'0 0.0
2015-May-01 23:31N 42°49' E 010°12'0 0.0
2015-May-01 22:06N 42°49' E 010°12'0 0.0
2015-May-01 21:29N 42°49' E 010°12'0 0.0
2015-May-01 20:31N 42°49' E 010°12'0 0.0
2015-May-01 19:33N 42°49' E 010°12'0 0.0
2015-May-01 18:32N 42°49' E 010°12'0 0.0
2015-May-01 17:29N 42°49' E 010°12'0 0.0
2015-May-01 16:31N 42°49' E 010°12'0 0.1
2015-May-01 13:32N 42°48' E 010°12'0 0.0
2015-May-01 12:31N 42°48' E 010°12'0 0.2
2015-May-01 11:33N 42°49' E 010°12'0 0.0
2015-May-01 10:33N 42°49' E 010°12'0 0.0
2015-May-01 09:30N 42°49' E 010°12'0 0.0
2015-May-01 08:33N 42°49' E 010°12'0 0.0
2015-May-01 07:32N 42°49' E 010°12'0 0.0
2015-May-01 06:32N 42°49' E 010°12'0 0.0
2015-May-01 05:31N 42°49' E 010°12'0 0.0
2015-May-01 04:33N 42°49' E 010°12'0 0.0
2015-May-01 03:33N 42°49' E 010°12'0 0.0
2015-May-01 02:33N 42°49' E 010°12'0 0.0
2015-May-01 01:33N 42°49' E 010°12'0 0.0
2015-May-01 00:33N 42°49' E 010°12'0 0.0
2015-Apr-30 23:33N 42°49' E 010°12'0 0.0
2015-Apr-30 22:33N 42°49' E 010°12'0 0.0
2015-Apr-30 21:28N 42°49' E 010°12'0 0.0
2015-Apr-30 20:33N 42°49' E 010°12'0 0.0
2015-Apr-30 19:33N 42°49' E 010°12'0 0.0
2015-Apr-30 18:33N 42°49' E 010°12'0 0.0
2015-Apr-30 17:33N 42°49' E 010°12'0 0.0
2015-Apr-30 16:27N 42°49' E 010°12'0 0.1
2015-Apr-30 13:25N 42°48' E 010°12'0 0.0
2015-Apr-30 12:33N 42°48' E 010°12'0 0.2
2015-Apr-30 11:32N 42°49' E 010°12'0 0.0
2015-Apr-30 10:32N 42°49' E 010°12'0 0.0
2015-Apr-30 09:30N 42°49' E 010°12'0 0.0
2015-Apr-30 04:32N 42°49' E 010°12'0 0.0
2015-Apr-30 03:32N 42°49' E 010°12'0 0.0
2015-Apr-30 02:33N 42°49' E 010°12'0 0.0
2015-Apr-30 01:32N 42°49' E 010°12'0 0.0
2015-Apr-30 00:33N 42°49' E 010°12'0 0.0
2015-Apr-29 23:33N 42°49' E 010°12'0 0.0
2015-Apr-29 22:32N 42°49' E 010°12'0 0.0
2015-Apr-29 21:23N 42°49' E 010°12'0 0.0
2015-Apr-29 20:33N 42°49' E 010°12'0 0.0
2015-Apr-29 19:33N 42°49' E 010°12'0 0.0
2015-Apr-29 18:29N 42°49' E 010°12'0 0.0
2015-Apr-29 17:27N 42°49' E 010°12'0 0.0
2015-Apr-29 16:05N 42°49' E 010°12'0 0.1
2015-Apr-29 13:33N 42°48' E 010°12'0 0.0
2015-Apr-29 12:33N 42°48' E 010°12'0 0.0
2015-Apr-29 11:33N 42°48' E 010°12'1 0.3
2015-Apr-29 07:20N 42°49' E 010°13'1 1.6
2015-Apr-29 06:32N 42°49' E 010°12'0 0.0
2015-Apr-29 05:27N 42°49' E 010°12'0 0.0
2015-Apr-29 04:26N 42°49' E 010°12'0 0.0
2015-Apr-29 03:32N 42°49' E 010°12'0 0.0
2015-Apr-29 02:33N 42°49' E 010°12'0 0.0
2015-Apr-29 01:33N 42°49' E 010°12'0 0.0
2015-Apr-29 00:33N 42°49' E 010°12'0 0.0
2015-Apr-28 23:33N 42°49' E 010°12'0 0.0
2015-Apr-28 22:33N 42°49' E 010°12'0 0.0
2015-Apr-28 21:33N 42°49' E 010°12'0 0.0
2015-Apr-28 20:33N 42°49' E 010°12'0 0.0
2015-Apr-28 19:32N 42°49' E 010°12'0 0.0
2015-Apr-28 18:32N 42°49' E 010°12'0 0.0
2015-Apr-28 17:33N 42°49' E 010°12'0 0.0
2015-Apr-28 16:32N 42°49' E 010°12'0 0.0
2015-Apr-28 15:33N 42°49' E 010°12'0 0.0
2015-Apr-27 21:26N 42°49' E 010°12'0 0.0
2015-Apr-27 20:31N 42°49' E 010°12'0 0.0
2015-Apr-27 19:26N 42°49' E 010°12'0 0.0
2015-Apr-27 15:32N 42°49' E 010°12'0 0.0
2015-Apr-27 13:28N 42°49' E 010°12'0 0.0
2015-Apr-27 12:30N 42°49' E 010°12'0 0.0
2015-Apr-27 10:28N 42°49' E 010°12'0 0.0
2015-Apr-27 07:17N 42°49' E 010°12'0 0.0
2015-Apr-27 05:24N 42°49' E 010°12'0 0.0
2015-Apr-27 02:24N 42°49' E 010°12'0 0.0
2015-Apr-27 01:31N 42°49' E 010°12'0 0.0
2015-Apr-27 00:32N 42°49' E 010°12'0 0.0
2015-Apr-26 23:27N 42°49' E 010°12'0 0.0
2015-Apr-26 22:30N 42°49' E 010°12'0 0.0
2015-Apr-26 21:33N 42°49' E 010°12'0 0.0
2015-Apr-26 20:33N 42°49' E 010°12'0 0.0
2015-Apr-26 19:33N 42°49' E 010°12'0 0.0
2015-Apr-26 18:33N 42°49' E 010°12'0 0.0
2015-Apr-26 17:33N 42°49' E 010°12'0 0.0
2015-Apr-26 16:33N 42°49' E 010°12'0 0.0
2015-Apr-26 15:33N 42°49' E 010°12'0 0.1
2015-Apr-26 14:33N 42°48' E 010°12'  
Track history (hours):
 
Tides and Currents Weather Stations Pressure Air Temp Water Temp Dewpoint Dewpoint Depression Visibility Wind Speed Wind Dir Waves Ship Positions

Nautilus

Last reported at 2015-May-06 14:22 UTC. Time now 2015-May-06 15:30 UTC.
Position N 42°46' E 010°06'.

Length 25 m.

Type: Passenger vessel. MMSI: 247205700.

Date/timePositionNaut miles runAvg speedWind from/ knotsBaromVisibWave heightAir tempDewpointWater temp
2015-May-06 14:22N 42°46' E 010°06'5 5.6
2015-May-06 13:32N 42°48' E 010°12'0 0.0
2015-May-06 12:33N 42°48' E 010°12'1 0.8
2015-May-06 11:32N 42°49' E 010°13'0 0.0
2015-May-06 07:16N 42°49' E 010°13'1 1.2
2015-May-06 06:32N 42°49' E 010°12'0 0.0
2015-May-06 05:33N 42°49' E 010°12'0 0.0
2015-May-06 04:33N 42°49' E 010°12'0 0.0
2015-May-06 03:33N 42°49' E 010°12'0 0.0
2015-May-06 02:20N 42°49' E 010°12'0 0.0
2015-May-06 01:33N 42°49' E 010°12'0 0.0
2015-May-06 00:33N 42°49' E 010°12'0 0.0
2015-May-05 23:33N 42°49' E 010°12'0 0.0
2015-May-05 22:33N 42°49' E 010°12'0 0.0
2015-May-05 21:31N 42°49' E 010°12'0 0.0
2015-May-05 20:32N 42°49' E 010°12'0 0.0
2015-May-05 19:33N 42°49' E 010°12'0 0.0
2015-May-05 18:33N 42°49' E 010°12'0 0.0
2015-May-05 17:33N 42°49' E 010°12'0 0.0
2015-May-05 16:31N 42°49' E 010°12'0 0.0
2015-May-05 15:33N 42°49' E 010°12'0 0.0
2015-May-05 14:33N 42°49' E 010°12'0 0.0
2015-May-05 13:33N 42°49' E 010°12'0 0.0
2015-May-05 12:33N 42°49' E 010°12'0 0.0
2015-May-05 11:30N 42°49' E 010°12'0 0.0
2015-May-05 10:33N 42°49' E 010°12'0 0.0
2015-May-05 09:27N 42°49' E 010°12'0 0.0
2015-May-05 08:33N 42°49' E 010°12'0 0.0
2015-May-05 07:33N 42°49' E 010°12'0 0.0
2015-May-05 06:20N 42°49' E 010°12'0 0.0
2015-May-05 05:33N 42°49' E 010°12'0 0.0
2015-May-05 04:14N 42°49' E 010°12'0 0.0
2015-May-05 03:25N 42°49' E 010°12'0 0.0
2015-May-05 02:33N 42°49' E 010°12'0 0.0
2015-May-05 01:33N 42°49' E 010°12'0 0.0
2015-May-05 00:30N 42°49' E 010°12'0 0.0
2015-May-04 23:33N 42°49' E 010°12'0 0.0
2015-May-04 22:33N 42°49' E 010°12'0 0.0
2015-May-04 21:33N 42°49' E 010°12'0 0.0
2015-May-04 20:33N 42°49' E 010°12'0 0.0
2015-May-04 19:33N 42°49' E 010°12'0 0.0
2015-May-04 18:31N 42°49' E 010°12'0 0.0
2015-May-04 17:32N 42°49' E 010°12'0 0.0
2015-May-04 16:29N 42°49' E 010°12'4 4.0
2015-May-04 15:31N 42°48' E 010°07'4 1.9
2015-May-04 13:28N 42°48' E 010°12'0 0.0
2015-May-04 12:21N 42°48' E 010°12'0 0.2
2015-May-04 11:33N 42°49' E 010°12'0 0.0
2015-May-04 10:33N 42°49' E 010°12'0 0.0
2015-May-04 09:33N 42°49' E 010°12'0 0.0
2015-May-04 08:31N 42°49' E 010°12'0 0.0
2015-May-04 07:21N 42°49' E 010°12'0 0.0
2015-May-04 05:27N 42°49' E 010°12'0 0.0
2015-May-04 04:32N 42°49' E 010°12'0 0.0
2015-May-04 03:27N 42°49' E 010°12'0 0.0
2015-May-04 02:24N 42°49' E 010°12'0 0.0
2015-May-04 01:33N 42°49' E 010°12'0 0.0
2015-May-04 00:33N 42°49' E 010°12'0 0.0
2015-May-03 23:33N 42°49' E 010°12'0 0.0
2015-May-03 22:33N 42°49' E 010°12'0 0.0
2015-May-03 21:33N 42°49' E 010°12'0 0.0
2015-May-03 20:33N 42°49' E 010°12'0 0.0
2015-May-03 19:33N 42°49' E 010°12'0 0.0
2015-May-03 18:33N 42°49' E 010°12'0 0.0
2015-May-03 17:33N 42°49' E 010°12'0 0.0
2015-May-03 16:33N 42°49' E 010°12'2 2.4
2015-May-03 15:33N 42°49' E 010°09'3 1.2
2015-May-03 13:28N 42°48' E 010°12'0 0.0
2015-May-03 12:30N 42°48' E 010°12'0 0.2
2015-May-03 11:33N 42°49' E 010°12'0 0.0
2015-May-03 10:33N 42°49' E 010°12'0 0.0
2015-May-03 09:29N 42°49' E 010°12'0 0.0
2015-May-03 08:31N 42°49' E 010°12'0 0.0
2015-May-03 07:33N 42°49' E 010°12'0 0.0
2015-May-03 06:33N 42°49' E 010°12'0 0.0
2015-May-03 05:32N 42°49' E 010°12'0 0.0
2015-May-03 04:33N 42°49' E 010°12'0 0.0
2015-May-03 03:33N 42°49' E 010°12'0 0.0
2015-May-03 02:32N 42°49' E 010°12'0 0.0
2015-May-03 01:33N 42°49' E 010°12'0 0.0
2015-May-03 00:32N 42°49' E 010°12'0 0.0
2015-May-02 23:32N 42°49' E 010°12'0 0.0
2015-May-02 22:33N 42°49' E 010°12'0 0.0
2015-May-02 21:33N 42°49' E 010°12'0 0.0
2015-May-02 20:33N 42°49' E 010°12'0 0.0
2015-May-02 19:33N 42°49' E 010°12'0 0.0
2015-May-02 18:33N 42°49' E 010°12'0 0.0
2015-May-02 17:33N 42°49' E 010°12'0 0.0
2015-May-02 16:33N 42°49' E 010°12'0 0.0
2015-May-02 12:08N 42°48' E 010°12'0 0.0
2015-May-02 04:11N 42°49' E 010°12'0 0.0
2015-May-01 23:31N 42°49' E 010°12'0 0.0
2015-May-01 22:06N 42°49' E 010°12'0 0.0
2015-May-01 21:29N 42°49' E 010°12'0 0.0
2015-May-01 20:31N 42°49' E 010°12'0 0.0
2015-May-01 19:33N 42°49' E 010°12'0 0.0
2015-May-01 18:32N 42°49' E 010°12'0 0.0
2015-May-01 17:29N 42°49' E 010°12'0 0.0
2015-May-01 16:31N 42°49' E 010°12'0 0.1
2015-May-01 13:32N 42°48' E 010°12'0 0.0
2015-May-01 12:31N 42°48' E 010°12'0 0.2
2015-May-01 11:33N 42°49' E 010°12'0 0.0
2015-May-01 10:33N 42°49' E 010°12'0 0.0
2015-May-01 09:30N 42°49' E 010°12'0 0.0
2015-May-01 08:33N 42°49' E 010°12'0 0.0
2015-May-01 07:32N 42°49' E 010°12'0 0.0
2015-May-01 06:32N 42°49' E 010°12'0 0.0
2015-May-01 05:31N 42°49' E 010°12'0 0.0
2015-May-01 04:33N 42°49' E 010°12'0 0.0
2015-May-01 03:33N 42°49' E 010°12'0 0.0
2015-May-01 02:33N 42°49' E 010°12'0 0.0
2015-May-01 01:33N 42°49' E 010°12'0 0.0
2015-May-01 00:33N 42°49' E 010°12'0 0.0
2015-Apr-30 23:33N 42°49' E 010°12'0 0.0
2015-Apr-30 22:33N 42°49' E 010°12'0 0.0
2015-Apr-30 21:28N 42°49' E 010°12'0 0.0
2015-Apr-30 20:33N 42°49' E 010°12'0 0.0
2015-Apr-30 19:33N 42°49' E 010°12'0 0.0
2015-Apr-30 18:33N 42°49' E 010°12'0 0.0
2015-Apr-30 17:33N 42°49' E 010°12'0 0.0
2015-Apr-30 16:27N 42°49' E 010°12'0 0.1
2015-Apr-30 13:25N 42°48' E 010°12'0 0.0
2015-Apr-30 12:33N 42°48' E 010°12'0 0.2
2015-Apr-30 11:32N 42°49' E 010°12'0 0.0
2015-Apr-30 10:32N 42°49' E 010°12'0 0.0
2015-Apr-30 09:30N 42°49' E 010°12'0 0.0
2015-Apr-30 04:32N 42°49' E 010°12'0 0.0
2015-Apr-30 03:32N 42°49' E 010°12'0 0.0
2015-Apr-30 02:33N 42°49' E 010°12'0 0.0
2015-Apr-30 01:32N 42°49' E 010°12'0 0.0
2015-Apr-30 00:33N 42°49' E 010°12'0 0.0
2015-Apr-29 23:33N 42°49' E 010°12'0 0.0
2015-Apr-29 22:32N 42°49' E 010°12'0 0.0
2015-Apr-29 21:23N 42°49' E 010°12'0 0.0
2015-Apr-29 20:33N 42°49' E 010°12'0 0.0
2015-Apr-29 19:33N 42°49' E 010°12'0 0.0
2015-Apr-29 18:29N 42°49' E 010°12'0 0.0
2015-Apr-29 17:27N 42°49' E 010°12'0 0.0
2015-Apr-29 16:05N 42°49' E 010°12'0 0.1
2015-Apr-29 13:33N 42°48' E 010°12'0 0.0
2015-Apr-29 12:33N 42°48' E 010°12'0 0.0
2015-Apr-29 11:33N 42°48' E 010°12'1 0.3
2015-Apr-29 07:20N 42°49' E 010°13'1 1.6
2015-Apr-29 06:32N 42°49' E 010°12'0 0.0
2015-Apr-29 05:27N 42°49' E 010°12'0 0.0
2015-Apr-29 04:26N 42°49' E 010°12'0 0.0
2015-Apr-29 03:32N 42°49' E 010°12'0 0.0
2015-Apr-29 02:33N 42°49' E 010°12'0 0.0
2015-Apr-29 01:33N 42°49' E 010°12'0 0.0
2015-Apr-29 00:33N 42°49' E 010°12'0 0.0
2015-Apr-28 23:33N 42°49' E 010°12'0 0.0
2015-Apr-28 22:33N 42°49' E 010°12'0 0.0
2015-Apr-28 21:33N 42°49' E 010°12'0 0.0
2015-Apr-28 20:33N 42°49' E 010°12'0 0.0
2015-Apr-28 19:32N 42°49' E 010°12'0 0.0
2015-Apr-28 18:32N 42°49' E 010°12'0 0.0
2015-Apr-28 17:33N 42°49' E 010°12'0 0.0
2015-Apr-28 16:32N 42°49' E 010°12'0 0.0
2015-Apr-28 15:33N 42°49' E 010°12'0 0.0
2015-Apr-27 21:26N 42°49' E 010°12'0 0.0
2015-Apr-27 20:31N 42°49' E 010°12'0 0.0
2015-Apr-27 19:26N 42°49' E 010°12'0 0.0
2015-Apr-27 15:32N 42°49' E 010°12'0 0.0
2015-Apr-27 13:28N 42°49' E 010°12'0 0.0
2015-Apr-27 12:30N 42°49' E 010°12'0 0.0
2015-Apr-27 10:28N 42°49' E 010°12'0 0.0
2015-Apr-27 07:17N 42°49' E 010°12'0 0.0
2015-Apr-27 05:24N 42°49' E 010°12'0 0.0
2015-Apr-27 02:24N 42°49' E 010°12'0 0.0
2015-Apr-27 01:31N 42°49' E 010°12'0 0.0
2015-Apr-27 00:32N 42°49' E 010°12'0 0.0
2015-Apr-26 23:27N 42°49' E 010°12'0 0.0
2015-Apr-26 22:30N 42°49' E 010°12'0 0.0
2015-Apr-26 21:33N 42°49' E 010°12'0 0.0
2015-Apr-26 20:33N 42°49' E 010°12'0 0.0
2015-Apr-26 19:33N 42°49' E 010°12'0 0.0
2015-Apr-26 18:33N 42°49' E 010°12'0 0.0
2015-Apr-26 17:33N 42°49' E 010°12'0 0.0
2015-Apr-26 16:33N 42°49' E 010°12'0 0.0
2015-Apr-26 15:33N 42°49' E 010°12'0 0.1
2015-Apr-26 14:33N 42°48' E 010°12'  

Dump ship's entire track history